sensor_id;sensor_type;location;lat;lon;timestamp;temperature;humidity
935;DHT22;454;53.254;10.400;2023-11-21T05:01:55;6.80;99.90
935;DHT22;454;53.254;10.400;2023-11-21T05:04:21;6.80;99.90
935;DHT22;454;53.254;10.400;2023-11-21T05:06:48;6.80;99.90
935;DHT22;454;53.254;10.400;2023-11-21T05:09:15;6.80;99.90
935;DHT22;454;53.254;10.400;2023-11-21T05:11:42;6.80;99.90
935;DHT22;454;53.254;10.400;2023-11-21T05:14:09;6.80;99.90
935;DHT22;454;53.254;10.400;2023-11-21T05:16:36;6.80;99.90
935;DHT22;454;53.254;10.400;2023-11-21T05:19:04;6.80;99.90
935;DHT22;454;53.254;10.400;2023-11-21T05:21:32;6.70;99.90
935;DHT22;454;53.254;10.400;2023-11-21T05:23:59;6.80;99.90
935;DHT22;454;53.254;10.400;2023-11-21T05:26:25;6.70;99.90
935;DHT22;454;53.254;10.400;2023-11-21T05:28:53;6.70;99.90
935;DHT22;454;53.254;10.400;2023-11-21T05:31:19;6.70;99.90
935;DHT22;454;53.254;10.400;2023-11-21T05:33:47;6.70;99.90
935;DHT22;454;53.254;10.400;2023-11-21T05:36:15;6.70;99.90
935;DHT22;454;53.254;10.400;2023-11-21T05:38:42;6.70;99.90
935;DHT22;454;53.254;10.400;2023-11-21T05:41:08;6.70;99.90
935;DHT22;454;53.254;10.400;2023-11-21T05:43:36;6.70;99.90
935;DHT22;454;53.254;10.400;2023-11-21T05:46:03;6.60;99.90
935;DHT22;454;53.254;10.400;2023-11-21T05:48:31;6.70;99.90
935;DHT22;454;53.254;10.400;2023-11-21T05:50:57;6.60;99.90
935;DHT22;454;53.254;10.400;2023-11-21T05:53:26;6.60;99.90
935;DHT22;454;53.254;10.400;2023-11-21T05:55:53;6.60;99.90
935;DHT22;454;53.254;10.400;2023-11-21T05:58:19;6.60;99.90
935;DHT22;454;53.254;10.400;2023-11-21T06:00:46;6.70;99.90
935;DHT22;454;53.254;10.400;2023-11-21T06:03:13;6.60;99.90
935;DHT22;454;53.254;10.400;2023-11-21T06:05:39;6.60;99.90
935;DHT22;454;53.254;10.400;2023-11-21T06:08:06;6.60;99.90
935;DHT22;454;53.254;10.400;2023-11-21T06:10:34;6.60;99.90
935;DHT22;454;53.254;10.400;2023-11-21T06:13:01;6.60;99.90
935;DHT22;454;53.254;10.400;2023-11-21T06:15:29;6.60;99.90
935;DHT22;454;53.254;10.400;2023-11-21T06:17:56;6.60;99.90
935;DHT22;454;53.254;10.400;2023-11-21T06:20:22;6.60;99.90
935;DHT22;454;53.254;10.400;2023-11-21T06:22:50;6.60;99.90
935;DHT22;454;53.254;10.400;2023-11-21T06:25:17;6.60;99.90
935;DHT22;454;53.254;10.400;2023-11-21T06:27:46;6.60;99.90
935;DHT22;454;53.254;10.400;2023-11-21T06:30:14;6.60;99.90
935;DHT22;454;53.254;10.400;2023-11-21T06:32:41;6.60;99.90
935;DHT22;454;53.254;10.400;2023-11-21T06:35:11;6.60;99.90
935;DHT22;454;53.254;10.400;2023-11-21T06:37:38;6.60;99.90
935;DHT22;454;53.254;10.400;2023-11-21T06:40:06;6.60;99.90
935;DHT22;454;53.254;10.400;2023-11-21T06:42:35;6.60;99.90
935;DHT22;454;53.254;10.400;2023-11-21T06:45:04;6.60;99.90
935;DHT22;454;53.254;10.400;2023-11-21T06:47:31;6.60;99.90
935;DHT22;454;53.254;10.400;2023-11-21T06:49:58;6.60;99.90
935;DHT22;454;53.254;10.400;2023-11-21T06:52:25;6.60;99.90
935;DHT22;454;53.254;10.400;2023-11-21T06:54:52;6.60;99.90
935;DHT22;454;53.254;10.400;2023-11-21T06:57:19;6.60;99.90
935;DHT22;454;53.254;10.400;2023-11-21T06:59:46;6.60;99.90
935;DHT22;454;53.254;10.400;2023-11-21T07:02:14;6.60;99.90
935;DHT22;454;53.254;10.400;2023-11-21T07:04:43;6.60;99.90
935;DHT22;454;53.254;10.400;2023-11-21T07:07:10;6.60;99.90
935;DHT22;454;53.254;10.400;2023-11-21T07:09:37;6.60;99.90
935;DHT22;454;53.254;10.400;2023-11-21T07:12:04;6.60;99.90
935;DHT22;454;53.254;10.400;2023-11-21T07:14:33;6.60;99.90
935;DHT22;454;53.254;10.400;2023-11-21T07:16:59;6.60;99.90
935;DHT22;454;53.254;10.400;2023-11-21T07:19:27;6.60;99.90
935;DHT22;454;53.254;10.400;2023-11-21T07:21:54;6.60;99.90
935;DHT22;454;53.254;10.400;2023-11-21T07:24:21;6.60;99.90
935;DHT22;454;53.254;10.400;2023-11-21T07:26:49;6.60;99.90
935;DHT22;454;53.254;10.400;2023-11-21T07:29:15;6.70;99.90
935;DHT22;454;53.254;10.400;2023-11-21T07:31:42;6.70;99.90
935;DHT22;454;53.254;10.400;2023-11-21T07:34:09;6.70;99.90
935;DHT22;454;53.254;10.400;2023-11-21T07:36:38;6.70;99.90
935;DHT22;454;53.254;10.400;2023-11-21T07:39:05;6.70;99.90
935;DHT22;454;53.254;10.400;2023-11-21T07:41:32;6.70;99.90
935;DHT22;454;53.254;10.400;2023-11-21T07:43:59;6.70;99.90
935;DHT22;454;53.254;10.400;2023-11-21T07:46:26;6.70;99.90
935;DHT22;454;53.254;10.400;2023-11-21T07:48:53;6.70;99.90
935;DHT22;454;53.254;10.400;2023-11-21T07:51:20;6.70;99.90
935;DHT22;454;53.254;10.400;2023-11-21T07:53:48;6.70;99.90
935;DHT22;454;53.254;10.400;2023-11-21T07:56:15;6.70;99.90
935;DHT22;454;53.254;10.400;2023-11-21T07:58:43;6.70;99.90
935;DHT22;454;53.254;10.400;2023-11-21T08:01:10;6.70;99.90
935;DHT22;454;53.254;10.400;2023-11-21T08:03:37;6.70;99.90
935;DHT22;454;53.254;10.400;2023-11-21T08:06:04;6.70;99.90
935;DHT22;454;53.254;10.400;2023-11-21T08:08:31;6.70;99.90
935;DHT22;454;53.254;10.400;2023-11-21T08:10:59;6.70;99.90
935;DHT22;454;53.254;10.400;2023-11-21T08:13:28;6.70;99.90
935;DHT22;454;53.254;10.400;2023-11-21T08:15:56;6.70;99.90
935;DHT22;454;53.254;10.400;2023-11-21T08:18:27;6.70;99.90
935;DHT22;454;53.254;10.400;2023-11-21T08:20:54;6.70;99.90
935;DHT22;454;53.254;10.400;2023-11-21T08:23:21;6.80;99.90
935;DHT22;454;53.254;10.400;2023-11-21T08:25:51;6.80;99.90
935;DHT22;454;53.254;10.400;2023-11-21T08:28:19;6.80;99.90
935;DHT22;454;53.254;10.400;2023-11-21T08:30:51;6.80;99.90
935;DHT22;454;53.254;10.400;2023-11-21T08:33:18;6.80;99.90
935;DHT22;454;53.254;10.400;2023-11-21T08:35:45;6.90;99.90
935;DHT22;454;53.254;10.400;2023-11-21T08:38:12;6.90;99.90
935;DHT22;454;53.254;10.400;2023-11-21T08:40:39;6.90;99.90
935;DHT22;454;53.254;10.400;2023-11-21T08:43:05;6.90;99.90
935;DHT22;454;53.254;10.400;2023-11-21T08:45:33;6.90;99.90
935;DHT22;454;53.254;10.400;2023-11-21T08:48:00;6.90;99.90
935;DHT22;454;53.254;10.400;2023-11-21T08:50:27;6.90;99.90
935;DHT22;454;53.254;10.400;2023-11-21T08:52:54;7.00;99.90
935;DHT22;454;53.254;10.400;2023-11-21T08:55:21;7.00;99.90
935;DHT22;454;53.254;10.400;2023-11-21T08:57:48;7.00;99.90
935;DHT22;454;53.254;10.400;2023-11-21T09:00:15;7.00;99.90
935;DHT22;454;53.254;10.400;2023-11-21T09:02:43;7.00;99.90
935;DHT22;454;53.254;10.400;2023-11-21T09:05:11;7.10;99.90
935;DHT22;454;53.254;10.400;2023-11-21T09:07:40;7.10;99.90
935;DHT22;454;53.254;10.400;2023-11-21T09:10:08;7.20;99.90
935;DHT22;454;53.254;10.400;2023-11-21T09:12:34;7.20;99.90
935;DHT22;454;53.254;10.400;2023-11-21T09:15:03;7.20;99.90
935;DHT22;454;53.254;10.400;2023-11-21T09:17:30;7.20;99.90
935;DHT22;454;53.254;10.400;2023-11-21T09:19:58;7.30;99.90
935;DHT22;454;53.254;10.400;2023-11-21T09:22:25;7.30;99.90
935;DHT22;454;53.254;10.400;2023-11-21T09:24:52;7.20;99.90
935;DHT22;454;53.254;10.400;2023-11-21T09:27:19;7.30;99.90
935;DHT22;454;53.254;10.400;2023-11-21T09:29:47;7.20;99.90
935;DHT22;454;53.254;10.400;2023-11-21T09:32:14;7.30;99.90
935;DHT22;454;53.254;10.400;2023-11-21T09:34:44;7.30;99.90
935;DHT22;454;53.254;10.400;2023-11-21T09:37:12;7.40;99.90
935;DHT22;454;53.254;10.400;2023-11-21T09:39:38;7.40;99.90
935;DHT22;454;53.254;10.400;2023-11-21T09:42:10;7.40;99.90
935;DHT22;454;53.254;10.400;2023-11-21T09:44:45;7.40;99.90
935;DHT22;454;53.254;10.400;2023-11-21T09:47:15;7.40;99.90
935;DHT22;454;53.254;10.400;2023-11-21T09:49:46;7.40;99.90
935;DHT22;454;53.254;10.400;2023-11-21T09:52:22;7.40;99.90
935;DHT22;454;53.254;10.400;2023-11-21T09:54:51;7.40;99.90
935;DHT22;454;53.254;10.400;2023-11-21T09:57:19;7.40;99.90
935;DHT22;454;53.254;10.400;2023-11-21T09:59:47;7.50;99.90
935;DHT22;454;53.254;10.400;2023-11-21T10:02:17;7.50;99.90
935;DHT22;454;53.254;10.400;2023-11-21T10:04:46;7.50;99.90
935;DHT22;454;53.254;10.400;2023-11-21T10:07:13;7.50;99.90
935;DHT22;454;53.254;10.400;2023-11-21T10:09:45;7.50;99.90
935;DHT22;454;53.254;10.400;2023-11-21T10:12:15;7.50;99.90
935;DHT22;454;53.254;10.400;2023-11-21T10:14:42;7.60;99.90
935;DHT22;454;53.254;10.400;2023-11-21T10:17:10;7.60;99.90
935;DHT22;454;53.254;10.400;2023-11-21T10:19:39;7.60;99.90
935;DHT22;454;53.254;10.400;2023-11-21T10:22:05;7.60;99.90
935;DHT22;454;53.254;10.400;2023-11-21T10:24:33;7.60;99.90
935;DHT22;454;53.254;10.400;2023-11-21T10:27:01;7.60;99.90
935;DHT22;454;53.254;10.400;2023-11-21T10:29:29;7.60;99.90
935;DHT22;454;53.254;10.400;2023-11-21T10:31:56;7.70;99.90
935;DHT22;454;53.254;10.400;2023-11-21T10:34:24;7.70;99.90
935;DHT22;454;53.254;10.400;2023-11-21T10:36:53;7.70;99.90
935;DHT22;454;53.254;10.400;2023-11-21T10:39:23;7.70;99.90
935;DHT22;454;53.254;10.400;2023-11-21T10:41:54;7.80;99.90
935;DHT22;454;53.254;10.400;2023-11-21T10:44:22;7.80;99.90
935;DHT22;454;53.254;10.400;2023-11-21T10:46:50;7.80;99.90
935;DHT22;454;53.254;10.400;2023-11-21T10:49:20;7.80;99.90
935;DHT22;454;53.254;10.400;2023-11-21T10:51:47;7.80;99.90
935;DHT22;454;53.254;10.400;2023-11-21T10:54:18;7.90;99.90
935;DHT22;454;53.254;10.400;2023-11-21T10:56:46;7.90;99.90
935;DHT22;454;53.254;10.400;2023-11-21T10:59:13;7.90;99.90
935;DHT22;454;53.254;10.400;2023-11-21T11:01:45;7.90;99.90
935;DHT22;454;53.254;10.400;2023-11-21T11:04:12;7.90;99.90
935;DHT22;454;53.254;10.400;2023-11-21T11:06:43;7.80;99.90
935;DHT22;454;53.254;10.400;2023-11-21T11:09:13;7.70;99.90
935;DHT22;454;53.254;10.400;2023-11-21T11:11:42;7.80;99.90
935;DHT22;454;53.254;10.400;2023-11-21T11:14:11;7.70;99.90
935;DHT22;454;53.254;10.400;2023-11-21T11:16:39;7.70;99.90
935;DHT22;454;53.254;10.400;2023-11-21T11:19:07;7.70;99.90
935;DHT22;454;53.254;10.400;2023-11-21T11:21:45;7.80;99.90
935;DHT22;454;53.254;10.400;2023-11-21T11:24:29;7.80;99.90
935;DHT22;454;53.254;10.400;2023-11-21T11:27:06;7.80;99.90
935;DHT22;454;53.254;10.400;2023-11-21T11:29:43;7.90;99.90
935;DHT22;454;53.254;10.400;2023-11-21T11:32:19;7.90;99.90
935;DHT22;454;53.254;10.400;2023-11-21T11:34:54;7.90;99.90
935;DHT22;454;53.254;10.400;2023-11-21T11:37:23;8.00;99.90
935;DHT22;454;53.254;10.400;2023-11-21T11:39:51;8.00;99.90
935;DHT22;454;53.254;10.400;2023-11-21T11:42:21;8.00;99.90
935;DHT22;454;53.254;10.400;2023-11-21T11:44:50;8.00;99.90
935;DHT22;454;53.254;10.400;2023-11-21T11:47:21;7.90;99.90
935;DHT22;454;53.254;10.400;2023-11-21T11:50:01;7.90;99.90
935;DHT22;454;53.254;10.400;2023-11-21T11:52:37;7.70;99.90
935;DHT22;454;53.254;10.400;2023-11-21T11:55:06;7.70;99.90
935;DHT22;454;53.254;10.400;2023-11-21T11:57:35;7.70;99.90
935;DHT22;454;53.254;10.400;2023-11-21T12:02:49;7.60;99.90
935;DHT22;454;53.254;10.400;2023-11-21T12:05:18;7.70;99.90
935;DHT22;454;53.254;10.400;2023-11-21T12:07:45;7.60;99.90
935;DHT22;454;53.254;10.400;2023-11-21T12:10:14;7.60;99.90
935;DHT22;454;53.254;10.400;2023-11-21T12:12:44;7.60;99.90
935;DHT22;454;53.254;10.400;2023-11-21T12:15:11;7.60;99.90
935;DHT22;454;53.254;10.400;2023-11-21T12:17:38;7.50;99.90
935;DHT22;454;53.254;10.400;2023-11-21T12:20:08;7.50;99.90
935;DHT22;454;53.254;10.400;2023-11-21T12:22:44;7.50;99.90
935;DHT22;454;53.254;10.400;2023-11-21T12:25:13;7.50;99.90
935;DHT22;454;53.254;10.400;2023-11-21T12:27:42;7.50;99.90
935;DHT22;454;53.254;10.400;2023-11-21T12:30:11;7.50;99.90
935;DHT22;454;53.254;10.400;2023-11-21T12:32:41;7.50;99.90
935;DHT22;454;53.254;10.400;2023-11-21T12:35:10;7.50;99.90
935;DHT22;454;53.254;10.400;2023-11-21T12:37:37;7.50;99.90
935;DHT22;454;53.254;10.400;2023-11-21T12:40:05;7.40;99.90
935;DHT22;454;53.254;10.400;2023-11-21T12:42:33;7.40;99.90
935;DHT22;454;53.254;10.400;2023-11-21T12:45:18;7.40;99.90
935;DHT22;454;53.254;10.400;2023-11-21T12:47:46;7.50;99.90
935;DHT22;454;53.254;10.400;2023-11-21T12:50:14;7.50;99.90
935;DHT22;454;53.254;10.400;2023-11-21T12:52:46;7.60;99.90
935;DHT22;454;53.254;10.400;2023-11-21T12:55:15;7.50;99.90
935;DHT22;454;53.254;10.400;2023-11-21T12:57:43;7.50;99.90
935;DHT22;454;53.254;10.400;2023-11-21T13:00:12;7.50;99.90
935;DHT22;454;53.254;10.400;2023-11-21T13:02:50;7.50;99.90
935;DHT22;454;53.254;10.400;2023-11-21T13:05:26;7.40;99.90
935;DHT22;454;53.254;10.400;2023-11-21T13:07:53;7.40;99.90
935;DHT22;454;53.254;10.400;2023-11-21T13:10:22;7.40;99.90
935;DHT22;454;53.254;10.400;2023-11-21T13:12:51;7.40;99.90
935;DHT22;454;53.254;10.400;2023-11-21T13:15:19;7.30;99.90
935;DHT22;454;53.254;10.400;2023-11-21T13:17:45;7.40;99.90
935;DHT22;454;53.254;10.400;2023-11-21T13:20:13;7.40;99.90
935;DHT22;454;53.254;10.400;2023-11-21T13:22:47;7.30;99.90
935;DHT22;454;53.254;10.400;2023-11-21T13:25:15;7.40;99.90
935;DHT22;454;53.254;10.400;2023-11-21T13:27:43;7.40;99.90
935;DHT22;454;53.254;10.400;2023-11-21T13:30:12;7.40;99.90
935;DHT22;454;53.254;10.400;2023-11-21T13:32:40;7.30;99.90
935;DHT22;454;53.254;10.400;2023-11-21T13:35:08;7.30;99.90
935;DHT22;454;53.254;10.400;2023-11-21T13:37:40;7.40;99.90
935;DHT22;454;53.254;10.400;2023-11-21T13:40:09;7.40;99.90
935;DHT22;454;53.254;10.400;2023-11-21T13:42:40;7.40;99.90
935;DHT22;454;53.254;10.400;2023-11-21T13:45:08;7.40;99.90
935;DHT22;454;53.254;10.400;2023-11-21T13:47:34;7.40;99.90
935;DHT22;454;53.254;10.400;2023-11-21T13:50:04;7.40;99.90
935;DHT22;454;53.254;10.400;2023-11-21T13:52:33;7.40;99.90
935;DHT22;454;53.254;10.400;2023-11-21T13:55:01;7.40;99.90
935;DHT22;454;53.254;10.400;2023-11-21T13:57:33;7.40;99.90
935;DHT22;454;53.254;10.400;2023-11-21T14:00:00;7.40;99.90
935;DHT22;454;53.254;10.400;2023-11-21T14:02:27;7.40;99.90
935;DHT22;454;53.254;10.400;2023-11-21T14:05:00;7.40;99.90
935;DHT22;454;53.254;10.400;2023-11-21T14:07:34;7.40;99.90
935;DHT22;454;53.254;10.400;2023-11-21T14:10:01;7.40;99.90
935;DHT22;454;53.254;10.400;2023-11-21T14:12:29;7.40;99.90
935;DHT22;454;53.254;10.400;2023-11-21T14:15:03;7.30;99.90
935;DHT22;454;53.254;10.400;2023-11-21T14:17:34;7.30;99.90
935;DHT22;454;53.254;10.400;2023-11-21T14:20:04;7.30;99.90
935;DHT22;454;53.254;10.400;2023-11-21T14:22:31;7.30;99.90
935;DHT22;454;53.254;10.400;2023-11-21T14:24:58;7.30;99.90
935;DHT22;454;53.254;10.400;2023-11-21T14:27:29;7.20;99.90
935;DHT22;454;53.254;10.400;2023-11-21T14:29:55;7.20;99.90
935;DHT22;454;53.254;10.400;2023-11-21T14:32:24;7.20;99.90
935;DHT22;454;53.254;10.400;2023-11-21T14:34:51;7.20;99.90
935;DHT22;454;53.254;10.400;2023-11-21T14:37:18;7.10;99.90
935;DHT22;454;53.254;10.400;2023-11-21T14:39:45;7.20;99.90
935;DHT22;454;53.254;10.400;2023-11-21T14:42:15;7.20;99.90
935;DHT22;454;53.254;10.400;2023-11-21T14:44:46;7.20;99.90
935;DHT22;454;53.254;10.400;2023-11-21T14:47:13;7.20;99.90
935;DHT22;454;53.254;10.400;2023-11-21T14:49:43;7.20;99.90
935;DHT22;454;53.254;10.400;2023-11-21T14:52:19;7.20;99.90
935;DHT22;454;53.254;10.400;2023-11-21T14:54:58;7.20;99.90
935;DHT22;454;53.254;10.400;2023-11-21T14:57:46;7.20;99.90
935;DHT22;454;53.254;10.400;2023-11-21T15:00:16;7.20;99.90
935;DHT22;454;53.254;10.400;2023-11-21T15:03:04;7.20;99.90
935;DHT22;454;53.254;10.400;2023-11-21T15:05:31;7.20;99.90
935;DHT22;454;53.254;10.400;2023-11-21T15:08:00;7.20;99.90
935;DHT22;454;53.254;10.400;2023-11-21T15:10:39;7.20;99.90
935;DHT22;454;53.254;10.400;2023-11-21T15:13:11;7.10;99.90
935;DHT22;454;53.254;10.400;2023-11-21T15:15:37;7.10;99.90
935;DHT22;454;53.254;10.400;2023-11-21T15:18:05;7.10;99.90
935;DHT22;454;53.254;10.400;2023-11-21T15:20:33;7.00;99.90
935;DHT22;454;53.254;10.400;2023-11-21T15:23:00;7.00;99.90
935;DHT22;454;53.254;10.400;2023-11-21T15:25:29;7.00;99.90
935;DHT22;454;53.254;10.400;2023-11-21T15:27:55;7.00;99.90
935;DHT22;454;53.254;10.400;2023-11-21T15:30:22;6.90;99.90
935;DHT22;454;53.254;10.400;2023-11-21T15:32:50;6.90;99.90
935;DHT22;454;53.254;10.400;2023-11-21T15:35:18;6.90;99.90
935;DHT22;454;53.254;10.400;2023-11-21T15:37:46;6.90;99.90
935;DHT22;454;53.254;10.400;2023-11-21T15:40:13;6.90;99.90
935;DHT22;454;53.254;10.400;2023-11-21T15:42:42;6.90;99.90
935;DHT22;454;53.254;10.400;2023-11-21T15:45:09;6.90;99.90
935;DHT22;454;53.254;10.400;2023-11-21T15:47:36;6.90;99.90
935;DHT22;454;53.254;10.400;2023-11-21T15:50:03;6.90;99.90
935;DHT22;454;53.254;10.400;2023-11-21T15:52:33;6.90;99.90
935;DHT22;454;53.254;10.400;2023-11-21T15:55:02;6.80;99.90
935;DHT22;454;53.254;10.400;2023-11-21T15:57:29;6.80;99.90
935;DHT22;454;53.254;10.400;2023-11-21T15:59:56;6.80;99.90
935;DHT22;454;53.254;10.400;2023-11-21T16:02:23;6.70;99.90
935;DHT22;454;53.254;10.400;2023-11-21T16:04:50;6.70;99.90
935;DHT22;454;53.254;10.400;2023-11-21T16:07:17;6.70;99.90
935;DHT22;454;53.254;10.400;2023-11-21T16:09:44;6.70;99.90
935;DHT22;454;53.254;10.400;2023-11-21T16:12:12;6.70;99.90
935;DHT22;454;53.254;10.400;2023-11-21T16:14:38;6.70;99.90
935;DHT22;454;53.254;10.400;2023-11-21T16:17:07;6.60;99.90
935;DHT22;454;53.254;10.400;2023-11-21T16:19:35;6.60;99.90
935;DHT22;454;53.254;10.400;2023-11-21T16:22:02;6.50;99.90
935;DHT22;454;53.254;10.400;2023-11-21T16:24:29;6.50;99.90
935;DHT22;454;53.254;10.400;2023-11-21T16:26:56;6.40;99.90
935;DHT22;454;53.254;10.400;2023-11-21T16:29:24;6.40;99.90
935;DHT22;454;53.254;10.400;2023-11-21T16:31:52;6.40;99.90
935;DHT22;454;53.254;10.400;2023-11-21T16:34:20;6.40;99.90
935;DHT22;454;53.254;10.400;2023-11-21T16:36:47;6.40;99.90
935;DHT22;454;53.254;10.400;2023-11-21T16:39:15;6.40;99.90
935;DHT22;454;53.254;10.400;2023-11-21T16:41:42;6.40;99.90
935;DHT22;454;53.254;10.400;2023-11-21T16:44:13;6.30;99.90
935;DHT22;454;53.254;10.400;2023-11-21T16:46:44;6.30;99.90
935;DHT22;454;53.254;10.400;2023-11-21T16:49:12;6.40;99.90
935;DHT22;454;53.254;10.400;2023-11-21T16:51:39;6.30;99.90
935;DHT22;454;53.254;10.400;2023-11-21T16:54:06;6.30;99.90
935;DHT22;454;53.254;10.400;2023-11-21T16:56:34;6.30;99.90
935;DHT22;454;53.254;10.400;2023-11-21T16:59:01;6.30;99.90
935;DHT22;454;53.254;10.400;2023-11-21T17:01:28;6.30;99.90
935;DHT22;454;53.254;10.400;2023-11-21T17:03:57;6.30;99.90
935;DHT22;454;53.254;10.400;2023-11-21T17:06:24;6.30;99.90
935;DHT22;454;53.254;10.400;2023-11-21T17:08:51;6.30;99.90
935;DHT22;454;53.254;10.400;2023-11-21T17:11:18;6.20;99.90
935;DHT22;454;53.254;10.400;2023-11-21T17:13:45;6.20;99.90
935;DHT22;454;53.254;10.400;2023-11-21T17:16:12;6.20;99.90
935;DHT22;454;53.254;10.400;2023-11-21T17:18:38;6.20;99.90
935;DHT22;454;53.254;10.400;2023-11-21T17:21:06;6.20;99.90
935;DHT22;454;53.254;10.400;2023-11-21T17:23:34;6.10;99.90
935;DHT22;454;53.254;10.400;2023-11-21T17:26:01;6.10;99.90
935;DHT22;454;53.254;10.400;2023-11-21T17:28:28;6.10;99.90
935;DHT22;454;53.254;10.400;2023-11-21T17:30:55;6.00;99.90
935;DHT22;454;53.254;10.400;2023-11-21T17:33:22;6.10;99.90
935;DHT22;454;53.254;10.400;2023-11-21T17:35:49;6.00;99.90
935;DHT22;454;53.254;10.400;2023-11-21T17:38:17;6.00;99.90
935;DHT22;454;53.254;10.400;2023-11-21T17:40:44;6.00;99.90
935;DHT22;454;53.254;10.400;2023-11-21T17:43:10;6.10;99.90
935;DHT22;454;53.254;10.400;2023-11-21T17:45:38;6.10;99.90
935;DHT22;454;53.254;10.400;2023-11-21T17:48:05;6.10;99.90
935;DHT22;454;53.254;10.400;2023-11-21T17:50:32;6.10;99.90
935;DHT22;454;53.254;10.400;2023-11-21T17:52:59;6.00;99.90
935;DHT22;454;53.254;10.400;2023-11-21T17:55:28;6.00;99.90
935;DHT22;454;53.254;10.400;2023-11-21T17:57:55;6.00;99.90
935;DHT22;454;53.254;10.400;2023-11-21T18:00:22;6.00;99.90
935;DHT22;454;53.254;10.400;2023-11-21T18:02:51;6.00;99.90
935;DHT22;454;53.254;10.400;2023-11-21T18:05:18;5.90;99.90
935;DHT22;454;53.254;10.400;2023-11-21T18:07:46;5.90;99.90
935;DHT22;454;53.254;10.400;2023-11-21T18:10:13;5.90;99.90
935;DHT22;454;53.254;10.400;2023-11-21T18:12:42;5.90;99.90
935;DHT22;454;53.254;10.400;2023-11-21T18:15:09;5.90;99.90
935;DHT22;454;53.254;10.400;2023-11-21T18:17:39;5.80;99.90
935;DHT22;454;53.254;10.400;2023-11-21T18:20:07;5.80;99.90
935;DHT22;454;53.254;10.400;2023-11-21T18:22:35;5.80;99.90
935;DHT22;454;53.254;10.400;2023-11-21T18:25:03;5.80;99.90
935;DHT22;454;53.254;10.400;2023-11-21T18:27:30;5.80;99.90
935;DHT22;454;53.254;10.400;2023-11-21T18:29:58;5.80;99.90
935;DHT22;454;53.254;10.400;2023-11-21T18:32:25;5.70;99.90
935;DHT22;454;53.254;10.400;2023-11-21T18:34:53;5.70;99.90
935;DHT22;454;53.254;10.400;2023-11-21T18:37:21;5.70;99.90
935;DHT22;454;53.254;10.400;2023-11-21T18:39:48;5.70;99.90
935;DHT22;454;53.254;10.400;2023-11-21T18:42:16;5.70;99.90
935;DHT22;454;53.254;10.400;2023-11-21T18:44:44;5.70;99.90
935;DHT22;454;53.254;10.400;2023-11-21T18:47:12;5.70;99.90
935;DHT22;454;53.254;10.400;2023-11-21T18:49:40;5.70;99.90
935;DHT22;454;53.254;10.400;2023-11-21T18:52:08;5.60;99.90
935;DHT22;454;53.254;10.400;2023-11-21T18:54:36;5.60;99.90
935;DHT22;454;53.254;10.400;2023-11-21T18:57:03;5.60;99.90
935;DHT22;454;53.254;10.400;2023-11-21T18:59:30;5.60;99.90
935;DHT22;454;53.254;10.400;2023-11-21T19:01:56;5.60;99.90
935;DHT22;454;53.254;10.400;2023-11-21T19:04:27;5.60;99.90
935;DHT22;454;53.254;10.400;2023-11-21T19:06:54;5.60;99.90
935;DHT22;454;53.254;10.400;2023-11-21T19:09:24;5.60;99.90
935;DHT22;454;53.254;10.400;2023-11-21T19:11:51;5.60;99.90
935;DHT22;454;53.254;10.400;2023-11-21T19:14:17;5.60;99.90
935;DHT22;454;53.254;10.400;2023-11-21T19:16:44;5.60;99.90
935;DHT22;454;53.254;10.400;2023-11-21T19:19:11;5.70;99.90
935;DHT22;454;53.254;10.400;2023-11-21T19:21:39;5.60;99.90
935;DHT22;454;53.254;10.400;2023-11-21T19:24:07;5.60;99.90
935;DHT22;454;53.254;10.400;2023-11-21T19:26:36;5.50;99.90
935;DHT22;454;53.254;10.400;2023-11-21T19:29:03;5.50;99.90
935;DHT22;454;53.254;10.400;2023-11-21T19:31:31;5.50;99.90
935;DHT22;454;53.254;10.400;2023-11-21T19:33:57;5.50;99.90
935;DHT22;454;53.254;10.400;2023-11-21T19:36:24;5.50;99.90
935;DHT22;454;53.254;10.400;2023-11-21T19:38:52;5.40;99.90
935;DHT22;454;53.254;10.400;2023-11-21T19:41:20;5.50;99.90
935;DHT22;454;53.254;10.400;2023-11-21T19:43:49;5.40;99.90
935;DHT22;454;53.254;10.400;2023-11-21T19:46:16;5.40;99.90
935;DHT22;454;53.254;10.400;2023-11-21T19:48:43;5.40;99.90
935;DHT22;454;53.254;10.400;2023-11-21T19:51:11;5.30;99.90
935;DHT22;454;53.254;10.400;2023-11-21T19:53:38;5.30;99.90
935;DHT22;454;53.254;10.400;2023-11-21T19:56:07;5.30;99.90
935;DHT22;454;53.254;10.400;2023-11-21T19:58:35;5.30;99.90
935;DHT22;454;53.254;10.400;2023-11-21T20:01:01;5.30;99.90
935;DHT22;454;53.254;10.400;2023-11-21T20:03:28;5.30;99.90
935;DHT22;454;53.254;10.400;2023-11-21T20:05:55;5.30;99.90
935;DHT22;454;53.254;10.400;2023-11-21T20:08:22;5.30;99.90
935;DHT22;454;53.254;10.400;2023-11-21T20:10:48;5.30;99.90
935;DHT22;454;53.254;10.400;2023-11-21T20:13:17;5.30;99.90
935;DHT22;454;53.254;10.400;2023-11-21T20:15:43;5.20;99.90
935;DHT22;454;53.254;10.400;2023-11-21T20:18:10;5.20;99.90
935;DHT22;454;53.254;10.400;2023-11-21T20:20:38;5.10;99.90
935;DHT22;454;53.254;10.400;2023-11-21T20:23:05;5.10;99.90
935;DHT22;454;53.254;10.400;2023-11-21T20:25:31;5.00;99.90
935;DHT22;454;53.254;10.400;2023-11-21T20:27:59;5.00;99.90
935;DHT22;454;53.254;10.400;2023-11-21T20:30:27;5.00;99.90
935;DHT22;454;53.254;10.400;2023-11-21T20:32:54;4.90;99.90
935;DHT22;454;53.254;10.400;2023-11-21T20:35:20;4.90;99.90
935;DHT22;454;53.254;10.400;2023-11-21T20:37:47;4.90;99.90
935;DHT22;454;53.254;10.400;2023-11-21T20:40:14;4.90;99.90
935;DHT22;454;53.254;10.400;2023-11-21T20:42:41;4.90;99.90
935;DHT22;454;53.254;10.400;2023-11-21T20:45:11;5.00;99.90
935;DHT22;454;53.254;10.400;2023-11-21T20:47:41;4.90;99.90
935;DHT22;454;53.254;10.400;2023-11-21T20:50:09;5.00;99.90
935;DHT22;454;53.254;10.400;2023-11-21T20:52:36;5.00;99.90
935;DHT22;454;53.254;10.400;2023-11-21T20:55:03;4.90;99.90
935;DHT22;454;53.254;10.400;2023-11-21T20:57:30;5.00;99.90
935;DHT22;454;53.254;10.400;2023-11-21T20:59:57;5.00;99.90
935;DHT22;454;53.254;10.400;2023-11-21T21:02:24;5.00;99.90
935;DHT22;454;53.254;10.400;2023-11-21T21:04:52;5.00;99.90
935;DHT22;454;53.254;10.400;2023-11-21T21:07:18;5.00;99.90
935;DHT22;454;53.254;10.400;2023-11-21T21:09:45;5.00;99.90
935;DHT22;454;53.254;10.400;2023-11-21T21:12:13;5.00;99.90
935;DHT22;454;53.254;10.400;2023-11-21T21:14:40;5.00;99.90
935;DHT22;454;53.254;10.400;2023-11-21T21:17:06;4.90;99.90
935;DHT22;454;53.254;10.400;2023-11-21T21:19:33;4.90;99.90
935;DHT22;454;53.254;10.400;2023-11-21T21:22:01;4.90;99.90
935;DHT22;454;53.254;10.400;2023-11-21T21:24:28;4.90;99.90
935;DHT22;454;53.254;10.400;2023-11-21T21:26:55;4.90;99.90
935;DHT22;454;53.254;10.400;2023-11-21T21:29:21;4.90;99.90
935;DHT22;454;53.254;10.400;2023-11-21T21:31:51;4.90;99.90
935;DHT22;454;53.254;10.400;2023-11-21T21:34:18;4.90;99.90
935;DHT22;454;53.254;10.400;2023-11-21T21:36:46;4.90;99.90
935;DHT22;454;53.254;10.400;2023-11-21T21:39:14;4.90;99.90
935;DHT22;454;53.254;10.400;2023-11-21T21:41:42;4.90;99.90
935;DHT22;454;53.254;10.400;2023-11-21T21:44:09;4.90;99.90